Time;durP1;ratioP1;P1;durP2;ratioP2;P2;SDS_P1;SDS_P2;PMS_P1;PMS_P2;Temp;Humidity;BMP_temperature;BMP_pressure;BME280_temperature;BME280_humidity;BME280_pressure;Samples;Min_cycle;Max_cycle;Signal;HPM_P1;HPM_P2
2024/02/06 08:30:15;;;;;;;2.83;1.67;;;;;;;11.68;100.00;99565.97;6178474;22;20063;-88
2024/02/06 08:32:57;;;;;;;5.30;2.08;;;;;;;11.64;100.00;99565.16;6179632;23;20071;-89
2024/02/06 08:35:26;;;;;;;2.30;1.40;;;;;;;11.68;100.00;99570.59;6180055;23;20431;-89
2024/02/06 08:38:44;;;;;;;;;;;;;;;;;;;;;
2024/02/06 09:35:34;;;;;;;2.35;1.38;;;;;;;11.71;100.00;99542.84;6172955;22;20094;-90
2024/02/06 09:38:56;;;;;;;6.47;1.50;;;;;;;11.62;100.00;99531.66;6184260;23;20042;-90
2024/02/06 09:58:53;;;;;;;2.05;1.35;;;;;;;11.74;100.00;99531.28;6180558;22;20071;-90
2024/02/06 10:01:20;;;;;;;3.42;1.30;;;;;;;11.69;100.00;99529.00;6112138;23;20040;-89
2024/02/06 10:04:51;;;;;;;4.97;2.17;;;;;;;11.62;100.00;99510.09;6164982;23;20024;-90
2024/02/06 10:07:29;;;;;;;3.20;1.30;;;;;;;11.57;100.00;99515.88;6130045;23;20024;-88
2024/02/06 10:10:02;;;;;;;1.48;1.35;;;;;;;11.72;100.00;99512.00;6177910;23;20510;-89
2024/02/06 10:12:57;;;;;;;1.67;1.05;;;;;;;11.84;100.00;99508.91;6202713;23;20264;-89
2024/02/06 10:18:53;;;;;;;2.05;1.20;;;;;;;11.72;100.00;99496.59;6158100;23;20047;-89
2024/02/06 10:31:59;;;;;;;1.98;1.48;;;;;;;11.72;100.00;99476.94;6169317;23;20041;-89
2024/02/06 10:34:28;;;;;;;2.05;0.98;;;;;;;11.74;100.00;99493.50;6186099;23;20017;-90
2024/02/06 10:36:58;;;;;;;2.70;1.60;;;;;;;11.67;100.00;99480.06;6207622;23;20083;-90
2024/02/06 10:39:26;;;;;;;2.80;1.10;;;;;;;11.68;100.00;99482.38;6185620;23;20032;-91
2024/02/06 10:42:02;;;;;;;5.90;1.67;;;;;;;11.64;100.00;99483.50;6196074;23;20000;-89
2024/02/06 10:44:56;;;;;;;1.92;1.27;;;;;;;11.67;100.00;99477.38;6163135;23;20005;-89
2024/02/06 10:47:22;;;;;;;1.40;0.80;;;;;;;11.69;100.00;99481.19;6168160;23;20020;-88
2024/02/06 10:50:18;;;;;;;3.03;1.33;;;;;;;11.80;100.00;99473.06;6158475;23;20647;-89
2024/02/06 10:57:06;;;;;;;1.73;1.40;;;;;;;11.75;100.00;99470.75;6153532;23;20028;-88
2024/02/06 10:59:49;;;;;;;4.07;1.42;;;;;;;11.73;100.00;99467.69;6170545;23;20015;-88
2024/02/06 11:02:29;;;;;;;2.60;0.90;;;;;;;11.65;100.00;99455.38;6168596;23;20079;-89
2024/02/06 11:05:48;;;;;;;3.65;1.40;;;;;;;11.91;100.00;99463.00;6175322;23;20004;-89
2024/02/06 11:14:53;;;;;;;1.10;0.85;;;;;;;11.88;100.00;99446.84;6201321;22;20070;-88
2024/02/06 11:18:25;;;;;;;3.05;1.50;;;;;;;11.92;100.00;99442.97;6173727;23;20023;-88
2024/02/06 11:21:59;;;;;;;1.55;1.05;;;;;;;11.96;100.00;99440.25;6087413;23;20016;-89
2024/02/06 11:24:28;;;;;;;1.30;1.10;;;;;;;11.62;100.00;99434.56;6157243;23;20405;-89
2024/02/06 11:30:31;;;;;;;2.33;1.48;;;;;;;11.86;100.00;99422.94;6147374;23;20012;-89
2024/02/06 11:33:08;;;;;;;1.92;1.15;;;;;;;11.79;100.00;99417.56;6175103;23;20005;-89
2024/02/06 11:35:37;;;;;;;2.63;1.52;;;;;;;11.87;100.00;99416.38;6182476;23;20009;-88
2024/02/06 11:38:05;;;;;;;;;;;;;;;11.71;100.00;99419.53;6161121;23;20004;-89
2024/02/06 11:40:43;;;;;;;2.78;1.20;;;;;;;11.92;100.00;99413.28;6180064;23;20362;-88
2024/02/06 11:43:09;;;;;;;4.32;1.27;;;;;;;11.96;100.00;99405.94;6160852;23;20013;-89
2024/02/06 11:46:01;;;;;;;6.20;1.80;;;;;;;11.91;100.00;99410.97;6192694;23;20001;-89
2024/02/06 11:48:42;;;;;;;2.28;1.45;;;;;;;11.88;100.00;99398.28;6180853;23;20023;-90
2024/02/06 11:51:08;;;;;;;1.20;0.93;;;;;;;11.81;100.00;99395.63;6186792;23;20012;-90
2024/02/06 11:53:40;;;;;;;3.80;1.42;;;;;;;12.07;100.00;99387.75;6167972;23;20435;-88
2024/02/06 11:56:08;;;;;;;2.08;1.50;;;;;;;11.90;100.00;99382.47;6162960;23;20012;-87
2024/02/06 11:58:37;;;;;;;5.93;1.63;;;;;;;11.93;100.00;99393.22;6156843;23;20013;-89
2024/02/06 12:01:06;;;;;;;3.90;1.25;;;;;;;11.96;100.00;99386.28;6190697;23;20012;-88
2024/02/06 12:03:31;;;;;;;1.33;1.13;;;;;;;12.04;100.00;99388.53;6158926;23;20083;-89
2024/02/06 12:05:57;;;;;;;3.38;1.48;;;;;;;12.03;100.00;99387.00;6204667;23;20044;-88
2024/02/06 12:08:25;;;;;;;3.33;1.40;;;;;;;11.93;100.00;99387.84;6182714;23;20351;-88
2024/02/06 12:10:50;;;;;;;2.45;1.10;;;;;;;12.00;100.00;99362.75;6184185;23;20013;-89
2024/02/06 12:20:46;;;;;;;;;;;;;;;;;;;;;
2024/02/06 12:23:38;;;;;;;3.55;1.45;;;;;;;11.98;100.00;99371.22;6190155;23;20039;-87
2024/02/06 12:26:04;;;;;;;1.98;1.10;;;;;;;12.20;100.00;99367.22;6178140;23;20008;-91
2024/02/06 12:28:33;;;;;;;4.85;1.40;;;;;;;12.18;100.00;99356.06;6183305;23;20013;-87
2024/02/06 12:31:04;;;;;;;3.00;1.20;;;;;;;12.24;100.00;99351.78;6161897;23;20019;-87
2024/02/06 12:33:38;;;;;;;1.88;1.20;;;;;;;12.54;100.00;99362.69;6186885;23;20019;-90
2024/02/06 12:36:04;;;;;;;0.80;0.77;;;;;;;12.52;100.00;99345.38;6167974;23;20163;-88
2024/02/06 12:39:30;;;;;;;4.97;1.20;;;;;;;12.37;100.00;99342.00;6177809;23;20475;-87
2024/02/06 12:41:58;;;;;;;3.28;1.38;;;;;;;12.47;100.00;99343.09;6181931;23;20343;-87
2024/02/06 12:45:16;;;;;;;;;;;;;;;;;;;;;
2024/02/06 12:48:04;;;;;;;2.20;1.02;;;;;;;12.53;99.63;99355.78;6185955;23;20032;-86
2024/02/06 13:07:24;;;;;;;1.67;1.23;;;;;;;12.60;98.11;99290.88;6187853;23;20071;-88
2024/02/06 13:10:05;;;;;;;2.08;1.13;;;;;;;12.61;98.71;99307.84;6184105;23;20521;-88
2024/02/06 13:12:45;;;;;;;;;;;;;;;;;;;;;
2024/02/06 13:15:25;;;;;;;1.55;0.90;;;;;;;12.66;97.99;99296.59;6202283;23;20027;-87
2024/02/06 13:21:48;;;;;;;2.03;1.15;;;;;;;12.58;96.94;99282.41;6197564;23;20028;-89
2024/02/06 13:24:43;;;;;;;3.05;1.15;;;;;;;12.59;98.03;99292.06;6199453;23;20338;-89
2024/02/06 13:27:09;;;;;;;2.88;0.98;;;;;;;12.54;98.94;99276.28;6207954;23;20030;-88
2024/02/06 13:29:37;;;;;;;1.63;0.85;;;;;;;12.46;100.00;99272.13;6178406;23;20149;-90
2024/02/06 13:32:20;;;;;;;7.38;0.90;;;;;;;12.48;99.33;99272.50;6209899;23;20023;-89
2024/02/06 13:35:19;;;;;;;0.50;0.50;;;;;;;12.59;98.62;99269.69;6234243;23;20430;-89
2024/02/06 13:38:00;;;;;;;2.17;1.00;;;;;;;12.67;97.82;99242.22;6170326;23;20027;-87
2024/02/06 13:40:57;;;;;;;;;;;;;;;12.73;97.41;99241.75;6192570;23;20710;-88
2024/02/06 13:43:28;;;;;;;9.57;1.30;;;;;;;12.76;97.52;99227.44;6162969;23;19908;-88
2024/02/06 13:46:21;;;;;;;4.57;0.88;;;;;;;12.57;97.40;99218.78;6182967;23;20026;-89
2024/02/06 13:49:34;;;;;;;6.03;1.63;;;;;;;12.63;97.91;99221.78;6200743;23;20042;-87
2024/02/06 13:55:32;;;;;;;1.52;0.90;;;;;;;12.74;96.87;99221.69;6157184;23;20028;-87
2024/02/06 13:58:24;;;;;;;3.28;1.10;;;;;;;12.85;96.78;99214.97;6196676;23;20230;-89
2024/02/06 14:04:11;;;;;;;3.90;1.42;;;;;;;12.92;94.85;99209.47;6210368;23;20039;-89
2024/02/06 14:06:40;;;;;;;4.90;1.40;;;;;;;12.93;95.17;99192.09;6182587;23;20020;-89
2024/02/06 14:09:11;;;;;;;6.00;1.75;;;;;;;12.82;94.90;99167.16;6208982;23;20012;-90
2024/02/06 14:12:11;;;;;;;3.08;1.50;;;;;;;12.94;94.32;99176.66;6181662;23;20033;-88
2024/02/06 14:14:54;;;;;;;2.15;1.63;;;;;;;12.95;95.28;99178.19;6222939;23;20020;-88
2024/02/06 14:21:10;;;;;;;8.50;1.73;;;;;;;12.92;94.50;99144.63;6199333;23;20008;-89
2024/02/06 14:23:38;;;;;;;5.28;1.17;;;;;;;12.94;93.82;99144.22;6184267;23;20401;-88
2024/02/06 14:26:45;;;;;;;3.35;1.30;;;;;;;13.02;93.90;99151.06;6201504;23;20406;-90
2024/02/06 14:32:39;;;;;;;7.60;1.33;;;;;;;12.94;93.93;99139.59;6206964;23;20020;-89
2024/02/06 14:35:30;;;;;;;1.58;1.27;;;;;;;12.89;94.14;99155.50;6231751;23;20008;-88
2024/02/06 14:37:56;;;;;;;;;;;;;;;12.79;94.53;99143.66;6226465;23;20022;-86
